Time;durP1;ratioP1;P1;durP2;ratioP2;P2;SDS_P1;SDS_P2;PMS_P1;PMS_P2;Temp;Humidity;BMP_temperature;BMP_pressure;BME280_temperature;BME280_humidity;BME280_pressure;Samples;Min_cycle;Max_cycle;Signal;HPM_P1;HPM_P2
2023/04/23 00:00:32;;;;;;;6.75;3.42;;;;;;;8.38;67.27;93882.41;5061803;28;20036;-75
2023/04/23 00:03:03;;;;;;;10.13;3.35;;;;;;;8.39;67.34;93881.31;5061734;28;20024;-73
2023/04/23 00:05:30;;;;;;;7.40;3.40;;;;;;;8.39;67.25;93878.66;5065216;28;20176;-72
2023/04/23 00:07:59;;;;;;;7.93;3.42;;;;;;;8.32;67.49;93870.31;5065130;28;20374;-74
2023/04/23 00:10:26;;;;;;;7.07;3.38;;;;;;;8.27;67.83;93875.75;5065404;28;20021;-73
2023/04/23 00:12:51;;;;;;;5.53;3.30;;;;;;;8.26;67.76;93877.59;5064966;28;20418;-73
2023/04/23 00:15:19;;;;;;;7.03;3.15;;;;;;;8.21;67.93;93873.19;5065336;28;20021;-73
2023/04/23 00:17:44;;;;;;;7.57;3.70;;;;;;;8.19;68.37;93877.22;5065346;28;20189;-73
2023/04/23 00:20:10;;;;;;;9.32;3.58;;;;;;;8.21;68.57;93875.06;5065221;28;20017;-73
2023/04/23 00:22:36;;;;;;;10.02;3.50;;;;;;;8.24;68.60;93885.06;5065164;28;20092;-73
2023/04/23 00:25:02;;;;;;;9.52;4.05;;;;;;;8.17;68.61;93874.84;5065010;28;20016;-73
2023/04/23 00:27:27;;;;;;;9.70;3.75;;;;;;;8.19;68.53;93882.53;5064857;28;20035;-73
2023/04/23 00:29:52;;;;;;;5.22;3.30;;;;;;;8.15;68.72;93873.59;5064914;28;20044;-73
2023/04/23 00:32:18;;;;;;;6.45;3.25;;;;;;;8.13;68.68;93876.53;5065162;28;20079;-73
2023/04/23 00:34:47;;;;;;;7.32;3.85;;;;;;;8.09;68.67;93872.91;5065222;28;20033;-73
2023/04/23 00:37:12;;;;;;;7.68;3.45;;;;;;;8.04;69.09;93878.31;5064858;28;20222;-73
2023/04/23 00:39:39;;;;;;;10.10;3.90;;;;;;;8.03;69.36;93869.56;5064703;28;20028;-73
2023/04/23 00:42:11;;;;;;;5.47;3.20;;;;;;;8.00;69.08;93864.06;5064981;28;20024;-73
2023/04/23 00:44:37;;;;;;;5.97;3.47;;;;;;;8.02;69.05;93872.53;5064618;28;20025;-74
2023/04/23 00:47:06;;;;;;;9.68;3.60;;;;;;;8.03;68.84;93871.44;5064685;28;20031;-74
2023/04/23 00:49:35;;;;;;;7.25;3.40;;;;;;;7.99;68.91;93867.78;5064473;28;20020;-74
2023/04/23 00:52:04;;;;;;;12.77;3.45;;;;;;;7.91;69.08;93866.59;5064641;28;20066;-72
2023/04/23 00:54:30;;;;;;;8.15;3.47;;;;;;;7.93;69.01;93868.97;5064509;28;20036;-72
2023/04/23 00:56:59;;;;;;;10.10;3.72;;;;;;;7.91;69.14;93873.78;5064555;28;20021;-72
2023/04/23 00:59:24;;;;;;;7.55;3.60;;;;;;;7.92;69.02;93870.06;5064459;28;20332;-72
2023/04/23 01:01:51;;;;;;;9.68;3.90;;;;;;;7.90;69.40;93872.25;5063175;28;20021;-72
2023/04/23 01:04:17;;;;;;;5.78;3.60;;;;;;;7.90;69.39;93872.25;5064440;28;20033;-72
2023/04/23 01:06:46;;;;;;;8.13;3.22;;;;;;;7.90;69.84;93873.00;5064365;28;20315;-72
2023/04/23 01:09:11;;;;;;;6.53;4.00;;;;;;;7.89;70.11;93873.31;5064161;28;20275;-73
2023/04/23 01:11:42;;;;;;;12.25;3.40;;;;;;;7.90;70.27;93880.19;5064254;28;20048;-74
2023/04/23 01:14:08;;;;;;;9.50;4.03;;;;;;;7.84;70.50;93874.97;5064153;28;20575;-74
2023/04/23 01:16:36;;;;;;;11.35;4.18;;;;;;;7.83;70.32;93870.72;5062982;28;20083;-73
2023/04/23 01:19:01;;;;;;;10.02;4.43;;;;;;;7.83;70.20;93873.38;5063883;28;20319;-72
2023/04/23 01:21:28;;;;;;;6.90;3.72;;;;;;;7.86;70.06;93869.38;5063902;28;20025;-73
2023/04/23 01:23:54;;;;;;;12.63;3.80;;;;;;;7.82;70.14;93874.47;5063938;28;20032;-73
2023/04/23 01:26:21;;;;;;;11.23;3.92;;;;;;;7.82;70.21;93873.69;5063803;28;20254;-73
2023/04/23 01:28:47;;;;;;;11.65;4.15;;;;;;;7.81;70.23;93872.91;5062774;28;20040;-73
2023/04/23 01:31:15;;;;;;;10.77;4.80;;;;;;;7.82;70.85;93871.81;5063660;28;20039;-73
2023/04/23 01:33:42;;;;;;;6.68;3.85;;;;;;;7.83;70.96;93865.44;5063731;28;20039;-73
2023/04/23 01:36:08;;;;;;;6.55;4.35;;;;;;;7.82;70.44;93873.69;5063618;28;20024;-73
2023/04/23 01:38:35;;;;;;;9.32;4.70;;;;;;;7.81;70.59;93870.25;5063770;28;20025;-73
2023/04/23 01:41:00;;;;;;;14.68;5.35;;;;;;;7.82;70.74;93879.00;5063569;28;20283;-73
2023/04/23 01:43:27;;;;;;;9.82;5.05;;;;;;;7.74;71.04;93872.50;5063717;28;20029;-73
2023/04/23 01:45:52;;;;;;;7.70;4.50;;;;;;;7.75;71.29;93879.38;5063465;28;20033;-73
2023/04/23 01:48:18;;;;;;;11.52;5.47;;;;;;;7.75;71.37;93887.34;5063764;28;20044;-73
2023/04/23 01:50:44;;;;;;;8.98;4.88;;;;;;;7.71;71.07;93873.09;5063532;28;20267;-72
2023/04/23 01:53:09;;;;;;;9.95;4.80;;;;;;;7.74;71.24;93883.13;5063318;28;20039;-73
2023/04/23 01:55:39;;;;;;;8.15;4.95;;;;;;;7.71;70.82;93883.69;5063134;28;20098;-72
2023/04/23 01:58:05;;;;;;;8.38;4.38;;;;;;;7.70;70.80;93884.03;5062963;28;20086;-72
2023/04/23 02:00:30;;;;;;;12.27;4.50;;;;;;;7.68;70.52;93884.31;5062974;28;20025;-72
2023/04/23 02:02:56;;;;;;;7.88;4.05;;;;;;;7.62;70.32;93886.25;5063311;28;20066;-72
2023/04/23 02:05:21;;;;;;;10.48;5.70;;;;;;;7.56;70.52;93892.72;5063047;28;20243;-72
2023/04/23 02:07:48;;;;;;;16.98;4.55;;;;;;;7.58;70.62;93879.19;5063161;28;20040;-72
2023/04/23 02:10:15;;;;;;;15.10;5.63;;;;;;;7.55;70.70;93890.38;5063224;28;20330;-73
2023/04/23 02:12:40;;;;;;;6.53;4.60;;;;;;;7.49;70.82;93891.53;5062832;28;20044;-73
2023/04/23 02:15:08;;;;;;;11.38;5.07;;;;;;;7.40;70.91;93891.44;5063062;28;20114;-73
2023/04/23 02:17:34;;;;;;;15.02;4.78;;;;;;;7.36;71.46;93893.09;5062986;28;20031;-74
2023/04/23 02:20:00;;;;;;;8.02;4.95;;;;;;;7.34;71.39;93892.59;5062750;28;20028;-73
2023/04/23 02:22:27;;;;;;;10.18;5.25;;;;;;;7.33;71.49;93889.16;5062795;28;20032;-74
2023/04/23 02:24:53;;;;;;;9.18;4.75;;;;;;;7.32;71.52;93892.88;5062930;28;20346;-74
2023/04/23 02:27:19;;;;;;;9.23;4.55;;;;;;;7.28;71.46;93883.94;5062413;28;20028;-73
2023/04/23 02:29:45;;;;;;;8.63;5.35;;;;;;;7.28;71.21;93886.59;5062998;28;20086;-73
2023/04/23 02:32:11;;;;;;;13.32;6.10;;;;;;;7.24;71.45;93885.59;5062425;28;20025;-73
2023/04/23 02:34:36;;;;;;;13.88;6.18;;;;;;;7.21;71.66;93891.50;5062756;28;20041;-73
2023/04/23 02:37:03;;;;;;;12.85;6.53;;;;;;;7.19;71.88;93894.44;5062913;28;20214;-73
2023/04/23 02:39:30;;;;;;;15.35;6.40;;;;;;;7.18;71.94;93887.53;5062660;28;20097;-74
2023/04/23 02:41:55;;;;;;;14.15;6.45;;;;;;;7.15;71.86;93885.47;5062640;28;20037;-73
2023/04/23 02:44:21;;;;;;;12.80;5.60;;;;;;;7.13;71.91;93884.22;5062469;28;20025;-74
2023/04/23 02:46:46;;;;;;;9.80;5.22;;;;;;;7.09;71.94;93889.28;5062562;28;20082;-73
2023/04/23 02:49:13;;;;;;;10.00;5.68;;;;;;;7.05;72.06;93893.59;5061402;28;20040;-73
2023/04/23 02:51:39;;;;;;;11.38;5.55;;;;;;;7.01;72.49;93888.09;5062482;28;20029;-74
2023/04/23 02:54:04;;;;;;;14.82;6.30;;;;;;;6.99;72.82;93889.47;5062539;28;20024;-73
2023/04/23 02:56:30;;;;;;;15.45;5.70;;;;;;;6.97;73.91;93897.69;5062272;28;20200;-73
2023/04/23 02:58:55;;;;;;;15.05;6.13;;;;;;;6.97;74.04;93894.25;5062502;28;20041;-73
2023/04/23 03:01:21;;;;;;;20.05;6.72;;;;;;;6.97;74.02;93904.84;5062267;28;20021;-73
2023/04/23 03:03:47;;;;;;;11.32;5.57;;;;;;;6.94;74.22;93898.28;5062569;28;20028;-73
2023/04/23 03:06:12;;;;;;;6.93;4.32;;;;;;;6.91;73.64;93901.50;5062271;28;20071;-73
2023/04/23 03:08:38;;;;;;;13.85;5.53;;;;;;;6.89;73.38;93908.94;5062076;28;20205;-73
2023/04/23 03:11:03;;;;;;;14.70;5.15;;;;;;;6.87;73.71;93903.16;5062344;28;20207;-73
2023/04/23 03:13:29;;;;;;;13.05;5.65;;;;;;;6.86;74.18;93898.13;5062208;28;20068;-73
2023/04/23 03:15:54;;;;;;;13.65;5.80;;;;;;;6.85;74.46;93904.50;5062253;28;20017;-73
2023/04/23 03:18:20;;;;;;;8.50;5.20;;;;;;;6.83;74.20;93900.28;5062082;28;20051;-73
2023/04/23 03:20:46;;;;;;;13.65;6.30;;;;;;;6.83;74.21;93902.94;5062520;28;20043;-73
2023/04/23 03:23:11;;;;;;;11.70;6.10;;;;;;;6.87;74.22;93902.38;5062189;28;20048;-73
2023/04/23 03:25:37;;;;;;;9.63;6.10;;;;;;;6.87;74.16;93911.09;5062178;28;20041;-72
2023/04/23 03:28:03;;;;;;;14.50;6.32;;;;;;;6.90;74.29;93912.38;5062074;28;20044;-72
2023/04/23 03:30:29;;;;;;;10.68;6.05;;;;;;;6.92;74.01;93911.03;5061951;28;20082;-74
2023/04/23 03:32:55;;;;;;;13.85;6.43;;;;;;;6.91;73.85;93908.66;5062048;28;20319;-74
2023/04/23 03:35:22;;;;;;;15.70;6.47;;;;;;;6.91;73.93;93906.78;5062103;28;20057;-74
2023/04/23 03:37:47;;;;;;;14.98;6.35;;;;;;;6.91;73.94;93914.75;5062237;28;20305;-73
2023/04/23 03:40:13;;;;;;;10.95;6.05;;;;;;;6.94;73.83;93910.72;5065026;28;20070;-74
2023/04/23 03:42:38;;;;;;;13.07;6.07;;;;;;;6.96;73.95;93913.88;5065884;28;20033;-74
2023/04/23 03:45:04;;;;;;;10.68;6.40;;;;;;;6.91;74.00;93913.97;5065838;28;20044;-74
2023/04/23 03:47:30;;;;;;;13.70;7.25;;;;;;;6.97;73.93;93918.09;5065804;28;20017;-74
2023/04/23 03:49:55;;;;;;;10.35;5.90;;;;;;;6.99;73.78;93915.97;5065554;28;20016;-74
2023/04/23 03:52:21;;;;;;;16.60;6.45;;;;;;;7.00;73.78;93917.50;5065787;28;20023;-74
2023/04/23 03:54:47;;;;;;;11.85;6.63;;;;;;;7.00;73.60;93913.03;5065924;28;20251;-73
2023/04/23 03:57:12;;;;;;;20.35;7.20;;;;;;;6.98;73.63;93925.78;5065579;28;20036;-74
2023/04/23 03:59:38;;;;;;;12.23;6.30;;;;;;;7.00;73.81;93926.28;5065526;28;20024;-73
2023/04/23 04:02:03;;;;;;;11.80;6.18;;;;;;;7.07;73.57;93922.47;5065262;28;20024;-73
2023/04/23 04:04:30;;;;;;;15.30;7.47;;;;;;;7.11;73.63;93931.41;5065526;28;20215;-73
2023/04/23 04:06:56;;;;;;;13.38;7.05;;;;;;;7.13;73.67;93921.31;5065638;28;20028;-73
2023/04/23 04:09:22;;;;;;;14.05;7.85;;;;;;;7.16;73.57;93920.72;5065474;28;20319;-73
2023/04/23 04:11:47;;;;;;;14.35;7.28;;;;;;;7.21;73.74;93933.91;5065303;28;20064;-73
2023/04/23 04:14:13;;;;;;;13.20;6.40;;;;;;;7.23;73.59;93924.59;5065128;28;20249;-73
2023/04/23 04:16:39;;;;;;;15.65;6.55;;;;;;;7.30;73.51;93936.69;5065340;28;20055;-73
2023/04/23 04:19:04;;;;;;;11.57;7.20;;;;;;;7.31;73.62;93928.44;5065291;28;20055;-73
2023/04/23 04:21:31;;;;;;;16.50;7.13;;;;;;;7.37;73.62;93926.50;5065152;28;20079;-73
2023/04/23 04:23:57;;;;;;;13.15;7.60;;;;;;;7.39;73.82;93930.44;5064890;28;20017;-74
2023/04/23 04:26:23;;;;;;;17.83;8.05;;;;;;;7.49;73.96;93924.16;5065004;28;20063;-74
2023/04/23 04:28:48;;;;;;;14.88;7.32;;;;;;;7.54;73.84;93934.69;5065285;28;20353;-73
2023/04/23 04:31:14;;;;;;;14.30;7.32;;;;;;;7.58;73.73;93934.88;5065155;28;20211;-74
2023/04/23 04:33:40;;;;;;;22.05;8.73;;;;;;;7.63;73.97;93940.09;5064955;28;20214;-74
2023/04/23 04:36:08;;;;;;;14.38;7.90;;;;;;;7.68;73.62;93942.66;5064930;28;20062;-74
2023/04/23 04:38:36;;;;;;;19.25;8.18;;;;;;;7.72;73.56;93946.31;5064838;28;20297;-74
2023/04/23 04:41:06;;;;;;;18.02;8.45;;;;;;;7.77;73.42;93942.78;5064843;28;20224;-73
2023/04/23 04:43:33;;;;;;;19.85;7.82;;;;;;;7.75;73.47;93948.38;5064627;28;20021;-73
2023/04/23 04:45:59;;;;;;;20.48;8.00;;;;;;;7.78;73.71;93936.41;5064545;28;20027;-74
2023/04/23 04:48:24;;;;;;;11.05;7.32;;;;;;;7.83;73.40;93941.59;5064919;28;20021;-74
2023/04/23 04:50:51;;;;;;;29.67;9.07;;;;;;;7.90;73.12;93943.88;5064385;28;20032;-73
2023/04/23 04:53:16;;;;;;;18.85;8.80;;;;;;;7.96;72.84;93948.03;5064807;28;20029;-73
2023/04/23 04:55:41;;;;;;;16.48;8.43;;;;;;;7.99;72.58;93939.47;5064524;28;20203;-74
2023/04/23 04:58:07;;;;;;;18.77;8.77;;;;;;;8.02;72.69;93952.16;5064300;28;20184;-74
2023/04/23 05:00:33;;;;;;;21.27;7.93;;;;;;;8.11;72.65;93952.25;5064556;28;20203;-74
2023/04/23 05:02:59;;;;;;;14.75;8.15;;;;;;;8.16;72.87;93947.63;5064343;28;20025;-76
2023/04/23 05:05:26;;;;;;;17.52;8.40;;;;;;;8.22;72.75;93951.75;5064287;28;20021;-74
2023/04/23 05:07:53;;;;;;;12.48;7.90;;;;;;;8.30;72.29;93952.13;5064215;28;20017;-74
2023/04/23 05:10:19;;;;;;;12.95;8.00;;;;;;;8.37;72.39;93949.88;5064305;28;20090;-75
2023/04/23 05:12:45;;;;;;;12.50;7.40;;;;;;;8.46;70.90;93944.69;5064116;28;20045;-74
2023/04/23 05:15:12;;;;;;;15.10;7.65;;;;;;;8.48;70.96;93947.84;5064261;28;20016;-75
2023/04/23 05:17:39;;;;;;;15.68;6.60;;;;;;;8.48;70.96;93945.97;5064237;28;20036;-75
2023/04/23 05:20:05;;;;;;;15.18;7.53;;;;;;;8.49;70.72;93952.84;5063889;28;20025;-73
2023/04/23 05:22:30;;;;;;;12.57;6.78;;;;;;;8.51;70.48;93956.00;5064053;28;20032;-73
2023/04/23 05:24:56;;;;;;;17.10;6.90;;;;;;;8.42;70.49;93947.16;5062778;28;20060;-74
2023/04/23 05:27:24;;;;;;;10.70;6.28;;;;;;;8.37;70.70;93950.66;5064084;28;20040;-73
2023/04/23 05:29:49;;;;;;;9.35;5.88;;;;;;;8.33;70.51;93952.34;5063743;28;20024;-74
2023/04/23 05:32:15;;;;;;;14.00;6.30;;;;;;;8.28;71.00;93957.75;5064218;28;20095;-74
2023/04/23 05:34:40;;;;;;;11.50;6.05;;;;;;;8.30;71.27;93957.44;5063768;28;20044;-74
2023/04/23 05:37:05;;;;;;;24.40;7.93;;;;;;;8.35;71.66;93965.34;5063725;28;20027;-74
2023/04/23 05:39:31;;;;;;;10.23;6.68;;;;;;;8.33;71.78;93964.84;5063604;28;20025;-74
2023/04/23 05:41:57;;;;;;;20.08;6.68;;;;;;;8.37;71.58;93958.63;5063258;28;20021;-74
2023/04/23 05:44:22;;;;;;;11.80;6.60;;;;;;;8.37;71.58;93958.63;5063430;28;20025;-74
2023/04/23 05:46:48;;;;;;;12.77;6.65;;;;;;;8.43;71.27;93967.31;5062309;28;20028;-74
2023/04/23 05:49:13;;;;;;;11.35;7.57;;;;;;;8.43;71.48;93972.63;5063478;28;20051;-74
2023/04/23 05:51:39;;;;;;;11.60;6.57;;;;;;;8.42;71.60;93968.41;5063100;28;20025;-73
2023/04/23 05:54:05;;;;;;;11.52;7.15;;;;;;;8.46;71.47;93969.38;5063241;28;20025;-73
2023/04/23 05:56:30;;;;;;;10.98;6.32;;;;;;;8.48;71.79;93980.50;5063151;28;20029;-73
2023/04/23 05:58:56;;;;;;;12.40;6.60;;;;;;;8.48;71.97;93972.53;5063287;28;20059;-72
2023/04/23 06:01:21;;;;;;;21.45;7.47;;;;;;;8.54;71.87;93973.22;5062473;28;20020;-72
2023/04/23 06:03:46;;;;;;;13.25;7.35;;;;;;;8.66;71.61;93980.69;5063332;28;20204;-73
2023/04/23 06:06:12;;;;;;;14.27;8.05;;;;;;;8.75;71.44;93971.72;5062927;28;20029;-72
2023/04/23 06:08:38;;;;;;;9.13;6.18;;;;;;;8.81;71.58;93969.72;5061936;28;20487;-72
2023/04/23 06:11:04;;;;;;;17.15;7.75;;;;;;;8.82;71.50;93974.75;5062868;28;20021;-73
2023/04/23 06:13:30;;;;;;;14.60;6.90;;;;;;;8.91;70.96;93968.72;5062722;28;20064;-73
2023/04/23 06:15:56;;;;;;;11.57;7.85;;;;;;;8.97;70.93;93970.94;5062762;28;20021;-72
2023/04/23 06:18:21;;;;;;;13.38;7.95;;;;;;;9.01;70.55;93963.94;5062966;28;20029;-72
2023/04/23 06:20:47;;;;;;;14.48;7.53;;;;;;;9.15;70.82;93968.44;5063196;28;20336;-73
2023/04/23 06:23:13;;;;;;;11.23;7.18;;;;;;;9.33;71.29;93951.53;5062771;28;20029;-73
2023/04/23 06:25:39;;;;;;;10.98;7.72;;;;;;;9.48;71.11;93962.91;5062876;28;20421;-74
2023/04/23 06:28:05;;;;;;;14.30;7.18;;;;;;;9.63;70.19;93957.22;5062889;28;20167;-74
2023/04/23 06:30:30;;;;;;;14.30;7.05;;;;;;;9.79;69.48;93958.41;5062800;28;20025;-74
2023/04/23 06:32:56;;;;;;;16.08;7.05;;;;;;;9.93;69.33;93957.50;5062790;28;20024;-73
2023/04/23 06:35:21;;;;;;;11.07;7.28;;;;;;;10.03;69.28;93957.25;5062616;28;20017;-73
2023/04/23 06:37:47;;;;;;;11.75;7.05;;;;;;;10.15;68.57;93968.13;5062858;28;20017;-73
2023/04/23 06:40:13;;;;;;;12.15;7.03;;;;;;;10.25;67.72;93959.84;5062643;28;20044;-73
2023/04/23 06:42:39;;;;;;;11.55;7.00;;;;;;;10.37;67.79;93961.19;5062818;28;20033;-73
2023/04/23 06:45:05;;;;;;;12.38;7.57;;;;;;;10.49;67.66;93952.59;5062706;28;20073;-74
2023/04/23 06:47:31;;;;;;;19.23;7.75;;;;;;;10.57;67.61;93955.28;5061401;28;20059;-74
2023/04/23 06:49:59;;;;;;;12.05;7.00;;;;;;;10.71;67.07;93960.50;5061211;28;20095;-74
2023/04/23 06:52:25;;;;;;;17.63;7.15;;;;;;;10.82;66.00;93956.41;5061337;28;20319;-74
2023/04/23 06:54:51;;;;;;;15.48;7.32;;;;;;;10.94;65.34;93960.38;5062418;28;20080;-74
2023/04/23 06:57:16;;;;;;;15.68;6.55;;;;;;;10.90;65.03;93962.09;5062556;28;20013;-75
2023/04/23 06:59:42;;;;;;;10.55;6.43;;;;;;;11.00;64.66;93961.78;5062468;28;20017;-73
2023/04/23 07:02:07;;;;;;;19.70;7.82;;;;;;;11.04;64.81;93963.50;5062271;28;20192;-71
2023/04/23 07:04:33;;;;;;;9.55;6.32;;;;;;;11.19;65.96;93956.94;5062483;28;20083;-71
2023/04/23 07:06:59;;;;;;;13.80;6.38;;;;;;;11.35;65.26;93967.13;5062807;28;20226;-71
2023/04/23 07:09:25;;;;;;;12.82;6.40;;;;;;;11.47;64.39;93963.81;5062798;28;20013;-71
2023/04/23 07:11:51;;;;;;;10.32;6.30;;;;;;;11.62;64.92;93966.00;5062598;28;20090;-71
2023/04/23 07:14:17;;;;;;;10.50;6.22;;;;;;;11.75;64.10;93965.03;5064447;28;20021;-71
2023/04/23 07:16:42;;;;;;;15.55;7.28;;;;;;;11.74;63.44;93968.03;5066884;28;20084;-71
2023/04/23 07:19:08;;;;;;;11.32;6.38;;;;;;;11.87;62.92;93961.72;5067029;28;20137;-70
2023/04/23 07:21:33;;;;;;;11.57;6.32;;;;;;;11.94;62.04;93961.25;5066595;28;20021;-76
2023/04/23 07:23:59;;;;;;;14.48;6.22;;;;;;;11.89;61.44;93959.53;5066405;28;20028;-76
2023/04/23 07:26:26;;;;;;;13.68;6.78;;;;;;;11.92;61.42;93963.47;5066773;28;20029;-79
2023/04/23 07:28:51;;;;;;;12.40;6.32;;;;;;;12.00;62.07;93962.66;5066779;28;20303;-79
2023/04/23 07:31:18;;;;;;;15.32;6.47;;;;;;;12.00;61.51;93955.41;5065987;28;20067;-79
2023/04/23 07:33:44;;;;;;;10.60;6.50;;;;;;;12.02;61.71;93963.88;5066785;28;20025;-78
2023/04/23 07:36:09;;;;;;;11.90;7.18;;;;;;;12.13;61.75;93963.53;5066863;28;20089;-77
2023/04/23 07:38:35;;;;;;;16.88;6.80;;;;;;;12.22;61.60;93962.41;5066734;28;20016;-77
2023/04/23 07:41:01;;;;;;;21.75;7.50;;;;;;;12.34;61.11;93966.31;5066627;28;20048;-79
2023/04/23 07:43:26;;;;;;;15.35;6.78;;;;;;;12.37;60.61;93958.41;5066854;28;20082;-78
2023/04/23 07:45:51;;;;;;;10.00;6.15;;;;;;;12.46;60.56;93961.06;5066712;28;20330;-78
2023/04/23 07:48:17;;;;;;;13.95;6.63;;;;;;;12.44;60.75;93971.31;5066676;28;20040;-79
2023/04/23 07:50:42;;;;;;;15.90;6.68;;;;;;;12.53;60.39;93958.66;5066561;28;20021;-79
2023/04/23 07:53:08;;;;;;;13.07;6.85;;;;;;;12.58;60.34;93963.84;5066688;28;20039;-79
2023/04/23 07:55:33;;;;;;;10.00;6.15;;;;;;;12.74;61.22;93955.25;5066833;28;20017;-81
2023/04/23 07:57:59;;;;;;;14.60;7.03;;;;;;;12.82;60.88;93959.75;5066564;28;20021;-79
2023/04/23 08:00:24;;;;;;;16.67;7.18;;;;;;;12.94;60.44;93957.16;5066670;28;20093;-80
2023/04/23 08:02:51;;;;;;;12.27;6.60;;;;;;;13.10;60.15;93956.59;5066238;28;20017;-80
2023/04/23 08:05:17;;;;;;;13.85;5.97;;;;;;;13.17;57.85;93952.28;5066420;28;20027;-79
2023/04/23 08:07:42;;;;;;;16.52;6.55;;;;;;;13.16;57.69;93952.63;5065839;28;20263;-79
2023/04/23 08:10:08;;;;;;;15.48;5.65;;;;;;;13.10;57.83;93952.03;5065078;28;20345;-79
2023/04/23 08:12:34;;;;;;;16.02;5.70;;;;;;;13.18;57.87;93948.50;5066219;28;20226;-78
2023/04/23 08:15:00;;;;;;;9.18;6.20;;;;;;;13.33;57.90;93951.72;5066083;28;20028;-79
2023/04/23 08:17:25;;;;;;;8.95;5.43;;;;;;;13.38;56.39;93952.31;5066282;28;20021;-81
2023/04/23 08:19:51;;;;;;;14.25;5.90;;;;;;;13.40;55.90;93960.00;5065212;28;20021;-82
2023/04/23 08:22:16;;;;;;;8.35;5.72;;;;;;;13.47;56.49;93956.81;5066422;28;20317;-85
2023/04/23 08:24:43;;;;;;;13.27;6.18;;;;;;;13.58;56.47;93950.72;5065474;28;20310;-80
2023/04/23 08:27:09;;;;;;;10.63;5.70;;;;;;;13.68;56.49;93949.53;5066470;28;20349;-80
2023/04/23 08:29:35;;;;;;;15.68;6.95;;;;;;;13.78;55.64;93943.75;5066083;28;20032;-75
2023/04/23 08:32:00;;;;;;;7.88;5.90;;;;;;;13.82;55.45;93947.34;5065349;28;20028;-74
2023/04/23 08:34:26;;;;;;;10.02;6.43;;;;;;;13.93;55.21;93945.00;5065417;28;20035;-74
2023/04/23 08:36:51;;;;;;;11.63;6.15;;;;;;;14.04;54.76;93940.00;5065545;28;20020;-74
2023/04/23 08:39:17;;;;;;;8.40;5.40;;;;;;;14.19;53.60;93936.69;5065681;28;20273;-74
2023/04/23 08:41:48;;;;;;;9.40;5.47;;;;;;;14.31;53.85;93935.13;5065412;28;20335;-74
2023/04/23 08:44:24;;;;;;;11.30;6.55;;;;;;;14.50;53.50;93931.91;5065519;28;20021;-74
2023/04/23 08:46:52;;;;;;;8.48;5.78;;;;;;;14.58;51.79;93931.81;5065194;28;20025;-74
2023/04/23 08:49:18;;;;;;;8.43;5.78;;;;;;;14.67;50.97;93933.59;5065272;28;20048;-74
2023/04/23 08:51:53;;;;;;;11.95;5.53;;;;;;;14.64;51.08;93935.84;5065420;28;20063;-74
2023/04/23 08:54:25;;;;;;;8.40;4.78;;;;;;;14.74;51.24;93925.78;5065174;28;20035;-74
2023/04/23 08:56:54;;;;;;;9.75;5.22;;;;;;;14.90;50.23;93928.53;5065332;28;20027;-74
2023/04/23 08:59:21;;;;;;;8.88;5.47;;;;;;;14.77;50.19;93925.09;5064898;28;20094;-73
2023/04/23 09:01:47;;;;;;;8.60;5.30;;;;;;;14.88;51.26;93922.72;5064989;28;20028;-74
2023/04/23 09:04:15;;;;;;;12.82;5.63;;;;;;;14.98;49.94;93919.56;5065139;28;20261;-77
2023/04/23 09:06:42;;;;;;;11.82;6.30;;;;;;;15.04;49.66;93916.34;5064503;28;20048;-77
2023/04/23 09:09:08;;;;;;;9.40;5.63;;;;;;;15.09;50.56;93919.91;5064452;28;20020;-76
2023/04/23 09:11:36;;;;;;;13.55;6.35;;;;;;;15.22;49.62;93916.84;5064547;28;20342;-76
2023/04/23 09:14:01;;;;;;;11.80;5.82;;;;;;;15.37;50.71;93928.75;5064990;28;20079;-75
2023/04/23 09:16:27;;;;;;;20.60;5.40;;;;;;;15.49;48.45;93919.88;5064930;28;20092;-74
2023/04/23 09:18:52;;;;;;;12.73;5.35;;;;;;;15.56;48.15;93924.66;5064833;28;20048;-75
2023/04/23 09:21:19;;;;;;;11.82;5.80;;;;;;;15.76;48.59;93918.31;5064938;28;20013;-74
2023/04/23 09:23:45;;;;;;;10.65;5.20;;;;;;;15.99;48.03;93909.69;5064975;28;20024;-75
2023/04/23 09:26:19;;;;;;;9.43;5.05;;;;;;;16.25;47.09;93914.56;5064429;28;20052;-74
2023/04/23 09:28:48;;;;;;;10.57;5.57;;;;;;;16.48;46.49;93909.31;5064779;28;20029;-75
2023/04/23 09:31:18;;;;;;;15.88;5.40;;;;;;;16.41;44.83;93904.56;5064655;28;20020;-76
2023/04/23 09:33:50;;;;;;;9.60;5.70;;;;;;;16.45;45.66;93907.34;5064818;28;20020;-74
2023/04/23 09:36:15;;;;;;;12.73;5.30;;;;;;;16.57;46.01;93901.88;5062506;28;20096;-74
2023/04/23 09:38:41;;;;;;;9.18;4.93;;;;;;;16.81;45.70;93897.41;5064348;28;20040;-74
2023/04/23 09:41:26;;;;;;;7.63;5.75;;;;;;;17.06;44.04;93895.28;5064274;28;20096;-74
2023/04/23 09:43:56;;;;;;;8.88;5.32;;;;;;;17.20;44.01;93894.78;5064092;28;20211;-74
2023/04/23 09:46:39;;;;;;;12.32;5.80;;;;;;;17.19;42.40;93893.22;5063951;28;20029;-74
2023/04/23 09:49:12;;;;;;;8.00;5.00;;;;;;;17.09;42.29;93886.47;5063784;28;20032;-73
2023/04/23 09:51:42;;;;;;;7.00;4.95;;;;;;;16.97;42.36;93887.38;5064263;28;20025;-73
2023/04/23 09:54:21;;;;;;;9.88;4.70;;;;;;;16.91;43.21;93888.00;5064334;28;20040;-75
2023/04/23 09:56:52;;;;;;;12.88;5.63;;;;;;;16.91;43.33;93883.41;5063894;28;20020;-73
2023/04/23 09:59:29;;;;;;;8.73;4.72;;;;;;;16.80;42.60;93885.84;5063877;28;20234;-73
2023/04/23 10:01:55;;;;;;;10.55;5.20;;;;;;;16.68;42.96;93872.50;5062734;28;20352;-74
2023/04/23 10:04:23;;;;;;;14.23;5.07;;;;;;;16.64;43.57;93879.72;5063856;28;20024;-74
2023/04/23 10:06:56;;;;;;;11.73;5.93;;;;;;;16.48;43.54;93874.34;5062568;28;20044;-74
2023/04/23 10:09:23;;;;;;;9.60;5.10;;;;;;;16.56;44.15;93867.22;5063538;28;20028;-75
2023/04/23 10:11:56;;;;;;;11.25;5.45;;;;;;;16.73;44.74;93860.66;5063312;28;20045;-74
2023/04/23 10:14:23;;;;;;;12.23;5.10;;;;;;;16.61;44.03;93865.06;5063684;28;20032;-72
2023/04/23 10:16:56;;;;;;;13.30;4.93;;;;;;;16.67;43.82;93862.88;5063724;28;20096;-75
2023/04/23 10:19:23;;;;;;;8.48;4.85;;;;;;;16.72;42.26;93859.13;5063631;28;20092;-79
2023/04/23 10:21:56;;;;;;;12.80;5.40;;;;;;;16.72;41.92;93848.38;5062572;28;20101;-77
2023/04/23 10:24:23;;;;;;;9.93;4.80;;;;;;;16.73;42.29;93850.72;5063566;28;20036;-76
2023/04/23 10:26:52;;;;;;;8.35;4.60;;;;;;;16.81;43.03;93846.25;5062943;28;20200;-75
2023/04/23 10:29:25;;;;;;;9.63;5.10;;;;;;;16.80;42.28;93844.69;5062972;28;20021;-76
2023/04/23 10:31:53;;;;;;;10.20;4.65;;;;;;;16.97;41.95;93838.91;5062954;28;20215;-76
2023/04/23 10:34:19;;;;;;;8.38;4.60;;;;;;;17.21;42.54;93842.47;5062705;28;20061;-76
2023/04/23 10:36:45;;;;;;;13.32;4.60;;;;;;;17.43;42.19;93832.88;5063047;28;20025;-76
2023/04/23 10:39:12;;;;;;;7.35;4.15;;;;;;;17.51;40.23;93828.41;5062621;28;20025;-75
2023/04/23 10:41:40;;;;;;;7.25;4.60;;;;;;;17.70;40.87;93833.75;5060608;28;20070;-76
2023/04/23 10:44:09;;;;;;;11.98;4.47;;;;;;;17.82;39.83;93828.19;5061885;28;20257;-76
2023/04/23 10:46:35;;;;;;;8.38;4.22;;;;;;;17.99;37.35;93834.25;5062579;28;20090;-76
2023/04/23 10:49:13;;;;;;;7.95;4.22;;;;;;;17.95;37.21;93822.63;5062392;28;20032;-75
2023/04/23 10:51:41;;;;;;;6.88;4.15;;;;;;;17.81;37.55;93823.94;5062678;28;20044;-75
2023/04/23 10:54:08;;;;;;;11.05;4.32;;;;;;;17.74;37.94;93810.31;5062491;28;20071;-76
2023/04/23 10:56:34;;;;;;;8.13;4.40;;;;;;;17.81;39.64;93818.56;5062396;28;20020;-76
2023/04/23 10:58:59;;;;;;;8.52;4.40;;;;;;;17.96;38.42;93811.50;5062458;28;20031;-75
2023/04/23 11:01:27;;;;;;;8.05;4.43;;;;;;;17.98;38.02;93806.53;5062389;28;20047;-76
2023/04/23 11:03:53;;;;;;;6.72;3.90;;;;;;;18.11;37.32;93803.63;5062468;28;20024;-76
2023/04/23 11:06:48;;;;;;;10.52;4.45;;;;;;;18.23;37.19;93804.19;5062254;28;20143;-75
2023/04/23 11:09:35;;;;;;;8.05;3.92;;;;;;;18.43;36.14;93798.72;5059605;28;20056;-75
2023/04/23 11:12:01;;;;;;;9.60;4.18;;;;;;;18.51;34.20;93791.50;5062267;28;20061;-76
2023/04/23 11:14:48;;;;;;;11.85;3.90;;;;;;;18.51;36.15;93791.50;5062313;28;20315;-76
2023/04/23 11:17:15;;;;;;;6.22;3.63;;;;;;;18.67;35.48;93788.63;5062541;28;20052;-76
2023/04/23 11:20:00;;;;;;;6.63;3.60;;;;;;;18.75;35.31;93784.88;5062260;28;20025;-76
2023/04/23 11:22:33;;;;;;;8.40;3.70;;;;;;;18.97;34.98;93786.72;5061193;28;20035;-76
2023/04/23 11:24:58;;;;;;;10.55;4.22;;;;;;;19.15;35.28;93786.94;5062400;28;20024;-76
2023/04/23 11:27:24;;;;;;;4.55;3.28;;;;;;;19.27;34.31;93777.78;5062409;28;20036;-75
2023/04/23 11:29:51;;;;;;;8.60;4.00;;;;;;;19.36;33.31;93775.59;5061972;28;20323;-76